createdAt,value
2023-05-09T00:02:22.174Z,7.18
2023-05-09T00:04:48.765Z,7.07
2023-05-09T00:07:15.641Z,7.40
2023-05-09T00:09:42.044Z,6.53
2023-05-09T00:12:08.730Z,6.78
2023-05-09T00:14:35.141Z,6.32
2023-05-09T00:17:01.559Z,6.10
2023-05-09T00:19:27.968Z,6.88
2023-05-09T00:21:54.333Z,6.22
2023-05-09T00:24:20.824Z,6.65
2023-05-09T00:26:47.192Z,6.28
2023-05-09T00:29:16.401Z,6.07
2023-05-09T00:31:42.841Z,6.22
2023-05-09T00:34:09.301Z,5.80
2023-05-09T00:36:35.681Z,5.70
2023-05-09T00:39:02.065Z,5.50
2023-05-09T00:41:28.424Z,5.70
2023-05-09T00:43:54.760Z,5.65
2023-05-09T00:46:23.611Z,5.60
2023-05-09T00:48:50.226Z,5.15
2023-05-09T00:51:19.063Z,6.43
2023-05-09T00:53:45.672Z,5.63
2023-05-09T00:56:12.566Z,5.45
2023-05-09T00:58:38.937Z,5.47
2023-05-09T01:01:05.667Z,5.60
2023-05-09T01:03:32.447Z,6.30
2023-05-09T01:06:03.221Z,5.47
2023-05-09T01:08:35.885Z,5.15
2023-05-09T01:11:09.564Z,5.95
2023-05-09T01:14:06.569Z,4.80
2023-05-09T01:16:37.878Z,5.95
2023-05-09T01:19:17.179Z,5.22
2023-05-09T01:21:47.683Z,5.25
2023-05-09T01:24:29.749Z,5.68
2023-05-09T01:27:18.751Z,5.13
2023-05-09T01:29:48.703Z,5.38
2023-05-09T01:32:19.864Z,5.55
2023-05-09T01:34:47.699Z,5.47
2023-05-09T01:37:15.539Z,5.78
2023-05-09T01:39:44.916Z,5.63
2023-05-09T01:42:11.837Z,5.20
2023-05-09T01:44:40.016Z,5.00
2023-05-09T01:47:07.775Z,5.80
2023-05-09T01:49:35.586Z,5.60
2023-05-09T01:52:06.914Z,5.47
2023-05-09T01:54:33.471Z,5.03
2023-05-09T01:56:59.961Z,6.00
2023-05-09T01:59:27.982Z,5.40
2023-05-09T02:01:55.736Z,4.70
2023-05-09T02:04:22.304Z,4.95
2023-05-09T02:06:52.781Z,4.97
2023-05-09T02:09:20.074Z,5.10
2023-05-09T02:11:46.950Z,5.10
2023-05-09T02:14:13.845Z,5.20
2023-05-09T02:16:40.725Z,4.75
2023-05-09T02:19:07.275Z,4.68
2023-05-09T02:21:33.699Z,4.82
2023-05-09T02:24:00.179Z,4.68
2023-05-09T02:26:26.841Z,4.78
2023-05-09T02:28:53.428Z,4.55
2023-05-09T02:31:20.833Z,4.95
2023-05-09T02:33:47.985Z,4.57
2023-05-09T02:36:19.634Z,4.22
2023-05-09T02:38:46.428Z,4.25
2023-05-09T02:41:14.159Z,4.40
2023-05-09T02:43:40.565Z,4.60
2023-05-09T02:46:07.394Z,4.80
2023-05-09T02:48:33.885Z,4.57
2023-05-09T02:51:00.315Z,4.57
2023-05-09T02:53:26.683Z,4.43
2023-05-09T02:55:53.910Z,4.80
2023-05-09T02:58:20.547Z,4.80
2023-05-09T03:00:46.941Z,3.95
2023-05-09T03:03:13.433Z,4.40
2023-05-09T03:05:39.822Z,4.60
2023-05-09T03:08:06.251Z,4.22
2023-05-09T03:10:32.583Z,4.22
2023-05-09T03:12:58.961Z,4.72
2023-05-09T03:15:25.313Z,4.95
2023-05-09T03:17:54.135Z,4.32
2023-05-09T03:20:22.899Z,4.47
2023-05-09T03:22:49.307Z,4.80
2023-05-09T03:25:16.891Z,4.72
2023-05-09T03:27:43.455Z,4.45
2023-05-09T03:30:10.030Z,4.03
2023-05-09T03:32:36.464Z,4.55
2023-05-09T03:35:02.985Z,4.18
2023-05-09T03:37:31.574Z,4.07
2023-05-09T03:39:57.958Z,4.03
2023-05-09T03:42:29.210Z,3.90
2023-05-09T03:44:55.672Z,4.70
2023-05-09T03:47:22.029Z,4.07
2023-05-09T03:49:48.636Z,4.28
2023-05-09T03:52:15.002Z,4.60
2023-05-09T03:54:41.368Z,4.47
2023-05-09T03:57:07.722Z,4.65
2023-05-09T03:59:34.064Z,4.07
2023-05-09T04:02:00.498Z,4.10
2023-05-09T04:04:27.473Z,4.45
2023-05-09T04:06:53.926Z,4.05
2023-05-09T04:09:20.336Z,4.30
2023-05-09T04:11:46.699Z,4.57
2023-05-09T04:14:15.684Z,4.40
2023-05-09T04:16:44.442Z,4.68
2023-05-09T04:19:15.774Z,4.18
2023-05-09T04:21:42.707Z,4.82
2023-05-09T04:24:09.093Z,4.50
2023-05-09T04:26:38.296Z,4.60
2023-05-09T04:29:04.819Z,4.47
2023-05-09T04:31:31.666Z,3.95
2023-05-09T04:34:00.926Z,4.72
2023-05-09T04:36:29.749Z,4.43
2023-05-09T04:38:56.979Z,4.75
2023-05-09T04:41:25.848Z,4.47
2023-05-09T04:43:52.514Z,5.00
2023-05-09T04:46:18.904Z,4.28
2023-05-09T04:48:45.425Z,4.55
2023-05-09T04:51:11.760Z,4.72
2023-05-09T04:53:38.253Z,5.40
2023-05-09T04:56:04.744Z,5.18
2023-05-09T04:58:31.828Z,4.50
2023-05-09T05:00:58.204Z,5.60
2023-05-09T05:03:24.632Z,5.15
2023-05-09T05:05:51.055Z,5.15
2023-05-09T05:08:17.553Z,4.80
2023-05-09T05:10:44.044Z,4.53
2023-05-09T05:13:12.643Z,5.50
2023-05-09T05:15:39.097Z,4.85
2023-05-09T05:18:07.583Z,5.15
2023-05-09T05:20:34.393Z,5.50
2023-05-09T05:23:03.162Z,4.95
2023-05-09T05:25:29.524Z,5.30
2023-05-09T05:27:55.890Z,5.10
2023-05-09T05:30:22.254Z,4.70
2023-05-09T05:32:51.201Z,4.80
2023-05-09T05:35:22.499Z,5.10
2023-05-09T05:37:49.220Z,5.03
2023-05-09T05:40:15.909Z,4.90
2023-05-09T05:42:46.088Z,4.88
2023-05-09T05:45:12.706Z,5.20
2023-05-09T05:47:39.348Z,4.88
2023-05-09T05:50:08.166Z,4.82
2023-05-09T05:52:34.573Z,5.70
2023-05-09T05:55:00.990Z,5.15
2023-05-09T05:57:27.392Z,5.10
2023-05-09T05:59:53.771Z,5.00
2023-05-09T06:02:20.237Z,5.40
2023-05-09T06:04:46.665Z,5.50
2023-05-09T06:07:13.978Z,5.40
2023-05-09T06:09:40.362Z,5.53
2023-05-09T06:12:06.809Z,5.60
2023-05-09T06:14:33.187Z,4.72
2023-05-09T06:16:59.720Z,5.15
2023-05-09T06:19:26.170Z,5.57
2023-05-09T06:21:52.627Z,5.45
2023-05-09T06:24:31.825Z,5.13
2023-05-09T06:27:01.376Z,5.05
2023-05-09T06:29:27.776Z,5.93
2023-05-09T06:31:54.250Z,5.25
2023-05-09T06:34:20.747Z,5.90
2023-05-09T06:36:47.186Z,5.15
2023-05-09T06:39:13.583Z,5.45
2023-05-09T06:41:40.532Z,5.25
2023-05-09T06:44:07.183Z,5.18
2023-05-09T06:46:36.140Z,5.43
2023-05-09T06:49:02.613Z,5.30
2023-05-09T06:51:29.022Z,5.53
2023-05-09T06:53:55.366Z,5.95
2023-05-09T06:56:23.108Z,4.93
2023-05-09T06:58:49.496Z,5.35
2023-05-09T07:01:15.975Z,5.40
2023-05-09T07:03:42.424Z,5.40
2023-05-09T07:06:09.030Z,4.90
2023-05-09T07:08:35.577Z,5.13
2023-05-09T07:11:01.908Z,5.32
2023-05-09T07:13:28.297Z,5.32
2023-05-09T07:15:54.637Z,5.47
2023-05-09T07:18:21.108Z,5.82
2023-05-09T07:20:47.554Z,5.80
2023-05-09T07:23:14.022Z,5.10
2023-05-09T07:25:40.452Z,4.78
2023-05-09T07:28:06.917Z,5.22
2023-05-09T07:30:35.709Z,5.10
2023-05-09T07:33:02.143Z,5.38
2023-05-09T07:35:28.555Z,5.10
2023-05-09T07:37:54.923Z,5.05
2023-05-09T07:40:21.318Z,4.75
2023-05-09T07:42:51.570Z,5.20
2023-05-09T07:45:22.814Z,5.03
2023-05-09T07:47:50.460Z,4.30
2023-05-09T07:50:17.412Z,4.68
2023-05-09T07:52:43.801Z,5.05
2023-05-09T07:55:10.490Z,4.65
2023-05-09T07:57:36.924Z,4.43
2023-05-09T08:00:06.614Z,4.70
2023-05-09T08:02:38.045Z,4.53
2023-05-09T08:05:04.745Z,4.65
2023-05-09T08:07:31.168Z,4.93
2023-05-09T08:09:57.553Z,5.05
2023-05-09T08:12:23.962Z,5.55
2023-05-09T08:14:50.513Z,5.00
2023-05-09T08:17:16.970Z,5.10
2023-05-09T08:19:43.363Z,5.28
2023-05-09T08:22:15.992Z,5.07
2023-05-09T08:24:42.328Z,4.73
2023-05-09T08:27:08.718Z,5.40
2023-05-09T08:29:40.234Z,5.18
2023-05-09T08:32:07.022Z,5.00
2023-05-09T08:34:34.608Z,5.00
2023-05-09T08:37:01.491Z,5.20
2023-05-09T08:39:27.995Z,5.28
2023-05-09T08:41:58.061Z,5.10
2023-05-09T08:44:25.084Z,5.45
2023-05-09T08:47:01.305Z,5.05
2023-05-09T08:49:30.770Z,5.03
2023-05-09T08:51:57.462Z,5.07
2023-05-09T08:54:24.554Z,5.40
2023-05-09T08:56:51.096Z,5.13
2023-05-09T08:59:20.109Z,5.20
2023-05-09T09:01:46.821Z,4.60
2023-05-09T09:04:14.688Z,4.97
2023-05-09T09:06:44.050Z,4.45
2023-05-09T09:09:11.515Z,4.68
2023-05-09T09:11:38.986Z,4.88
2023-05-09T09:14:31.561Z,4.43
2023-05-09T09:16:58.396Z,4.57
2023-05-09T09:19:29.842Z,4.63
2023-05-09T09:21:58.906Z,4.72
2023-05-09T09:24:25.446Z,4.95
2023-05-09T09:26:51.877Z,4.95
2023-05-09T09:32:03.955Z,5.30
2023-05-09T09:34:30.375Z,4.65
2023-05-09T09:36:56.846Z,5.40
2023-05-09T09:39:25.686Z,5.90
2023-05-09T09:41:52.017Z,6.65
2023-05-09T09:44:19.595Z,5.43
2023-05-09T09:46:46.304Z,5.20
2023-05-09T09:49:13.122Z,5.88
2023-05-09T09:51:40.120Z,5.68
2023-05-09T09:54:07.452Z,5.68
2023-05-09T09:56:40.281Z,5.55
2023-05-09T09:59:16.059Z,6.20
2023-05-09T10:02:03.424Z,6.35
2023-05-09T10:04:34.821Z,5.68
2023-05-09T10:07:06.000Z,5.68
2023-05-09T10:09:33.348Z,5.50
2023-05-09T10:12:04.417Z,5.72
2023-05-09T10:14:32.465Z,5.50
2023-05-09T10:17:04.200Z,5.72
2023-05-09T10:19:31.851Z,6.28
2023-05-09T10:22:02.557Z,5.88
2023-05-09T10:24:35.788Z,5.97
2023-05-09T10:27:08.797Z,6.60
2023-05-09T10:29:36.474Z,6.45
2023-05-09T10:32:08.325Z,7.13
2023-05-09T10:34:36.893Z,6.22
2023-05-09T10:37:03.848Z,6.68
2023-05-09T10:39:30.611Z,5.88
2023-05-09T10:41:58.308Z,5.80
2023-05-09T10:44:25.073Z,6.32
2023-05-09T10:46:54.370Z,6.57
2023-05-09T10:49:20.974Z,6.68
2023-05-09T10:51:49.549Z,6.15
2023-05-09T10:54:26.379Z,6.72
2023-05-09T10:56:55.225Z,6.53
2023-05-09T10:59:37.892Z,6.70
2023-05-09T11:02:05.012Z,6.20
2023-05-09T11:04:32.503Z,6.30
2023-05-09T11:06:59.681Z,6.20
2023-05-09T11:09:28.575Z,6.38
2023-05-09T11:11:57.261Z,5.40
2023-05-09T11:14:30.690Z,5.65
2023-05-09T11:16:58.385Z,5.38
2023-05-09T11:19:35.201Z,5.40
2023-05-09T11:22:11.179Z,5.55
2023-05-09T11:24:38.229Z,5.00
2023-05-09T11:27:24.851Z,4.95
2023-05-09T11:29:56.228Z,4.85
2023-05-09T11:32:27.252Z,5.05
2023-05-09T11:35:05.475Z,5.25
2023-05-09T11:37:39.159Z,4.70
2023-05-09T11:40:05.942Z,5.20
2023-05-09T11:42:37.727Z,4.85
2023-05-09T11:45:05.026Z,5.03
2023-05-09T11:47:31.481Z,5.20
2023-05-09T11:49:57.913Z,4.55
2023-05-09T11:52:25.693Z,4.93
2023-05-09T11:54:52.106Z,5.03
2023-05-09T11:57:20.934Z,4.90
2023-05-09T11:59:52.281Z,4.82
2023-05-09T12:02:18.708Z,4.60
2023-05-09T12:04:45.208Z,4.63
2023-05-09T12:07:12.999Z,4.75
2023-05-09T12:09:39.432Z,4.78
2023-05-09T12:12:12.339Z,5.00
2023-05-09T12:14:39.678Z,4.63
2023-05-09T12:17:09.512Z,5.40
2023-05-09T12:19:36.705Z,5.50
2023-05-09T12:22:04.274Z,5.00
2023-05-09T12:24:31.331Z,5.68
2023-05-09T12:26:58.836Z,5.85
2023-05-09T12:29:25.891Z,5.30
2023-05-09T12:31:55.222Z,5.35
2023-05-09T12:34:21.736Z,5.05
2023-05-09T12:36:50.799Z,6.18
2023-05-09T12:39:24.518Z,5.63
2023-05-09T12:42:00.985Z,5.72
2023-05-09T12:44:29.634Z,5.10
2023-05-09T12:46:57.070Z,4.70
2023-05-09T12:49:23.673Z,5.70
2023-05-09T12:51:50.695Z,4.55
2023-05-09T12:54:23.365Z,4.88
2023-05-09T12:56:52.398Z,4.75
2023-05-09T12:59:22.547Z,5.03
2023-05-09T13:02:09.514Z,5.43
2023-05-09T13:04:35.895Z,5.60
2023-05-09T13:07:08.212Z,5.68
2023-05-09T13:09:34.549Z,5.78
2023-05-09T13:12:03.876Z,6.35
2023-05-09T13:14:30.316Z,5.95
2023-05-09T13:16:56.845Z,6.45
2023-05-09T13:19:23.234Z,6.07
2023-05-09T13:21:49.663Z,6.38
2023-05-09T13:24:16.009Z,6.13
2023-05-09T13:26:42.372Z,6.10
2023-05-09T13:29:08.773Z,6.20
2023-05-09T13:31:35.211Z,5.88
2023-05-09T13:34:01.634Z,6.22
2023-05-09T13:36:28.016Z,5.10
2023-05-09T13:38:54.392Z,5.88
2023-05-09T13:41:22.725Z,6.10
2023-05-09T13:43:49.262Z,6.45
2023-05-09T13:46:15.982Z,5.18
2023-05-09T13:48:42.456Z,5.43
2023-05-09T13:51:09.915Z,5.13
2023-05-09T13:53:38.701Z,5.10
2023-05-09T13:56:06.412Z,5.10
2023-05-09T13:58:33.056Z,5.30
2023-05-09T14:00:59.415Z,4.68
2023-05-09T14:03:26.553Z,4.28
2023-05-09T14:05:53.014Z,4.72
2023-05-09T14:08:21.296Z,5.30
2023-05-09T14:10:48.050Z,5.00
2023-05-09T14:13:15.572Z,5.30
2023-05-09T14:15:42.101Z,4.68
2023-05-09T14:18:14.858Z,3.90
2023-05-09T14:20:43.504Z,3.97
2023-05-09T14:23:09.882Z,4.43
2023-05-09T14:25:36.295Z,4.00
2023-05-09T14:28:02.734Z,4.20
2023-05-09T14:30:29.125Z,3.60
2023-05-09T14:32:55.599Z,3.55
2023-05-09T14:35:22.050Z,3.10
2023-05-09T14:37:48.520Z,3.50
2023-05-09T14:40:15.360Z,3.78
2023-05-09T14:42:42.292Z,3.78
2023-05-09T14:45:10.761Z,3.20
2023-05-09T14:47:37.253Z,3.20
2023-05-09T14:50:04.503Z,3.60
2023-05-09T14:52:30.990Z,3.25
2023-05-09T14:54:59.657Z,2.90
2023-05-09T14:57:26.060Z,2.97
2023-05-09T14:59:52.853Z,3.72
2023-05-09T15:02:19.368Z,3.38
2023-05-09T15:04:45.776Z,2.85
2023-05-09T15:07:12.515Z,3.22
2023-05-09T15:09:38.972Z,3.22
2023-05-09T15:12:07.853Z,3.08
2023-05-09T15:14:34.240Z,3.17
2023-05-09T15:17:03.385Z,3.15
2023-05-09T15:19:31.681Z,3.83
2023-05-09T15:21:58.905Z,3.80
2023-05-09T15:24:25.927Z,3.85
2023-05-09T15:26:52.780Z,3.50
2023-05-09T15:29:19.215Z,3.70
2023-05-09T15:31:45.612Z,4.05
2023-05-09T15:34:12.119Z,3.55
2023-05-09T15:36:38.573Z,3.20
2023-05-09T15:39:05.119Z,3.28
2023-05-09T15:41:31.703Z,3.22
2023-05-09T15:43:58.522Z,3.20
2023-05-09T15:46:25.060Z,3.17
2023-05-09T15:48:53.396Z,3.28
2023-05-09T15:51:23.529Z,3.25
2023-05-09T15:53:50.023Z,3.60
2023-05-09T15:56:16.406Z,3.28
2023-05-09T15:58:42.924Z,3.72
2023-05-09T16:01:12.847Z,3.47
2023-05-09T16:03:39.457Z,3.83
2023-05-09T16:06:06.286Z,3.75
2023-05-09T16:08:32.634Z,3.88
2023-05-09T16:11:00.928Z,3.60
2023-05-09T16:13:27.616Z,3.95
2023-05-09T16:15:54.121Z,4.60
2023-05-09T16:18:20.449Z,4.20
2023-05-09T16:20:46.864Z,4.05
2023-05-09T16:23:13.306Z,4.22
2023-05-09T16:25:39.718Z,3.92
2023-05-09T16:28:07.167Z,4.30
2023-05-09T16:30:33.624Z,3.95
2023-05-09T16:33:00.061Z,4.43
2023-05-09T16:35:26.730Z,4.50
2023-05-09T16:37:53.085Z,3.90
2023-05-09T16:40:20.451Z,4.00
2023-05-09T16:42:46.861Z,3.50
2023-05-09T16:45:15.967Z,3.25
2023-05-09T16:47:42.366Z,3.38
2023-05-09T16:50:10.552Z,2.83
2023-05-09T16:52:37.136Z,3.25
2023-05-09T16:55:04.204Z,3.83
2023-05-09T16:57:30.582Z,3.10
2023-05-09T16:59:56.968Z,3.42
2023-05-09T17:02:23.451Z,2.58
2023-05-09T17:04:49.867Z,3.45
2023-05-09T17:07:16.413Z,3.00
2023-05-09T17:09:43.173Z,3.15
2023-05-09T17:12:14.804Z,2.90
2023-05-09T17:14:41.248Z,2.90
2023-05-09T17:17:09.812Z,2.90
2023-05-09T17:19:36.726Z,2.70
2023-05-09T17:22:05.784Z,2.97
2023-05-09T17:24:32.521Z,2.80
2023-05-09T17:27:01.016Z,2.80
2023-05-09T17:29:31.113Z,3.38
2023-05-09T17:32:00.305Z,2.67
2023-05-09T17:34:27.674Z,3.00
2023-05-09T17:36:54.280Z,2.95
2023-05-09T17:39:22.154Z,2.83
2023-05-09T17:41:48.569Z,3.13
2023-05-09T17:44:15.485Z,2.92
2023-05-09T17:46:42.290Z,2.97
2023-05-09T17:49:11.067Z,2.88
2023-05-09T17:51:37.585Z,3.10
2023-05-09T17:54:05.379Z,3.03
2023-05-09T17:56:31.801Z,4.55
2023-05-09T17:58:59.307Z,2.92
2023-05-09T18:01:26.013Z,3.08
2023-05-09T18:03:55.072Z,3.05
2023-05-09T18:06:21.472Z,2.78
2023-05-09T18:08:48.301Z,3.17
2023-05-09T18:11:15.022Z,3.28
2023-05-09T18:13:41.399Z,3.28
2023-05-09T18:16:07.857Z,3.42
2023-05-09T18:18:35.583Z,2.92
2023-05-09T18:21:02.231Z,3.10
2023-05-09T18:23:28.684Z,3.65
2023-05-09T18:25:55.121Z,3.17
2023-05-09T18:28:24.707Z,3.58
2023-05-09T18:30:55.433Z,3.60
2023-05-09T18:33:24.944Z,2.88
2023-05-09T18:35:52.931Z,3.45
2023-05-09T18:38:19.438Z,3.33
2023-05-09T18:40:45.964Z,3.00
2023-05-09T18:43:12.475Z,3.00
2023-05-09T18:45:39.045Z,3.13
2023-05-09T18:48:05.549Z,3.30
2023-05-09T18:50:32.366Z,3.20
2023-05-09T18:52:59.613Z,3.38
2023-05-09T18:55:26.127Z,3.30
2023-05-09T18:57:52.503Z,3.22
2023-05-09T19:00:18.923Z,3.35
2023-05-09T19:02:48.544Z,3.63
2023-05-09T19:05:14.954Z,3.25
2023-05-09T19:07:41.367Z,2.83
2023-05-09T19:10:08.329Z,3.20
2023-05-09T19:12:37.891Z,3.30
2023-05-09T19:15:05.275Z,2.95
2023-05-09T19:17:31.899Z,3.22
2023-05-09T19:19:58.301Z,3.22
2023-05-09T19:22:24.727Z,3.20
2023-05-09T19:24:51.595Z,3.50
2023-05-09T19:27:18.991Z,3.55
2023-05-09T19:29:46.541Z,3.40
2023-05-09T19:32:14.034Z,3.60
2023-05-09T19:34:43.234Z,3.67
2023-05-09T19:37:09.597Z,3.25
2023-05-09T19:39:35.986Z,3.38
2023-05-09T19:42:02.366Z,3.90
2023-05-09T19:44:28.750Z,3.60
2023-05-09T19:46:58.380Z,3.53
2023-05-09T19:49:25.862Z,3.55
2023-05-09T19:51:52.243Z,3.63
2023-05-09T19:54:18.638Z,3.90
2023-05-09T19:56:45.000Z,3.40
2023-05-09T19:59:11.375Z,3.40
2023-05-09T20:01:37.980Z,3.47
2023-05-09T20:04:04.663Z,4.07
2023-05-09T20:06:31.122Z,3.40
2023-05-09T20:08:57.605Z,3.60
2023-05-09T20:11:24.025Z,3.45
2023-05-09T20:13:50.850Z,3.80
2023-05-09T20:16:17.480Z,4.07
2023-05-09T20:18:44.189Z,3.58
2023-05-09T20:21:10.710Z,3.50
2023-05-09T20:23:39.827Z,3.42
2023-05-09T20:26:06.479Z,3.95
2023-05-09T20:28:32.894Z,3.80
2023-05-09T20:30:59.306Z,3.88
2023-05-09T20:33:25.704Z,3.53
2023-05-09T20:35:52.230Z,3.60
2023-05-09T20:38:19.127Z,3.65
2023-05-09T20:40:45.864Z,3.70
2023-05-09T20:43:12.268Z,4.18
2023-05-09T20:45:38.824Z,3.70
2023-05-09T20:48:06.617Z,3.97
2023-05-09T20:50:33.085Z,3.70
2023-05-09T20:52:59.454Z,3.90
2023-05-09T20:55:25.833Z,4.07
2023-05-09T20:57:52.236Z,4.10
2023-05-09T21:00:18.799Z,3.55
2023-05-09T21:02:45.616Z,3.80
2023-05-09T21:05:12.046Z,3.83
2023-05-09T21:07:38.434Z,3.80
2023-05-09T21:10:05.073Z,4.00
2023-05-09T21:12:32.741Z,3.72
2023-05-09T21:14:59.129Z,3.80
2023-05-09T21:17:25.700Z,4.47
2023-05-09T21:19:52.291Z,4.00
2023-05-09T21:22:18.712Z,3.92
2023-05-09T21:24:45.274Z,4.35
2023-05-09T21:27:11.669Z,3.78
2023-05-09T21:29:38.083Z,3.95
2023-05-09T21:32:06.907Z,3.75
2023-05-09T21:34:33.354Z,3.85
2023-05-09T21:36:59.876Z,4.15
2023-05-09T21:39:26.328Z,4.03
2023-05-09T21:41:52.702Z,4.15
2023-05-09T21:44:19.061Z,4.13
2023-05-09T21:46:46.477Z,3.65
2023-05-09T21:49:16.528Z,3.55
2023-05-09T21:51:43.032Z,3.90
2023-05-09T21:54:10.749Z,3.85
2023-05-09T21:56:37.146Z,3.88
2023-05-09T21:59:03.756Z,3.63
2023-05-09T22:01:30.259Z,4.18
2023-05-09T22:03:56.704Z,4.05
2023-05-09T22:06:23.151Z,4.07
2023-05-09T22:08:51.327Z,3.88
2023-05-09T22:11:18.086Z,3.90
2023-05-09T22:13:44.512Z,3.97
2023-05-09T22:16:10.998Z,4.60
2023-05-09T22:18:37.395Z,3.95
2023-05-09T22:21:03.923Z,4.30
2023-05-09T22:23:30.280Z,4.05
2023-05-09T22:25:59.056Z,4.55
2023-05-09T22:28:25.451Z,4.05
2023-05-09T22:30:54.212Z,3.92
2023-05-09T22:33:20.726Z,4.05
2023-05-09T22:35:47.188Z,4.15
2023-05-09T22:38:13.654Z,4.75
2023-05-09T22:40:39.992Z,4.57
2023-05-09T22:43:10.545Z,4.28
2023-05-09T22:45:37.008Z,4.38
2023-05-09T22:48:05.905Z,4.70
2023-05-09T22:50:32.336Z,4.18
2023-05-09T22:52:58.757Z,4.53
2023-05-09T22:55:25.252Z,4.78
2023-05-09T22:57:51.645Z,4.55
2023-05-09T23:00:18.502Z,4.32
2023-05-09T23:02:45.461Z,4.70
2023-05-09T23:05:14.453Z,4.63
2023-05-09T23:07:40.846Z,4.65
2023-05-09T23:10:07.388Z,5.10
2023-05-09T23:12:33.953Z,4.80
2023-05-09T23:15:00.361Z,4.65
2023-05-09T23:17:26.760Z,4.70
2023-05-09T23:19:53.135Z,4.40
2023-05-09T23:22:19.520Z,4.25
2023-05-09T23:24:46.226Z,4.75
2023-05-09T23:27:12.629Z,4.85
2023-05-09T23:29:38.996Z,4.43
2023-05-09T23:32:05.399Z,4.63
2023-05-09T23:34:31.840Z,4.88
2023-05-09T23:36:58.217Z,4.68
2023-05-09T23:39:24.651Z,5.13
2023-05-09T23:41:50.998Z,4.57
2023-05-09T23:44:17.337Z,4.50
2023-05-09T23:46:43.787Z,4.82
2023-05-09T23:49:10.283Z,4.40
2023-05-09T23:51:36.620Z,4.68
2023-05-09T23:54:03.173Z,4.88
2023-05-09T23:56:32.856Z,4.68
2023-05-09T23:58:59.207Z,4.22
